Time;durP1;ratioP1;P1;durP2;ratioP2;P2;SDS_P1;SDS_P2;PMS_P1;PMS_P2;Temp;Humidity;BMP_temperature;BMP_pressure;BME280_temperature;BME280_humidity;BME280_pressure;Samples;Min_cycle;Max_cycle;Signal;HPM_P1;HPM_P2
2022/06/25 00:00:59;;;;;;;5.80;3.15;;;;;;;18.92;61.81;93800.53;5042693;28;20028;-87
2022/06/25 00:03:25;;;;;;;6.97;3.22;;;;;;;18.88;61.92;93799.72;5045439;28;20215;-86
2022/06/25 00:05:50;;;;;;;7.88;3.85;;;;;;;18.87;62.16;93791.97;5046000;28;20017;-87
2022/06/25 00:08:15;;;;;;;6.43;3.40;;;;;;;18.86;62.56;93793.91;5046065;28;20021;-86
2022/06/25 00:10:42;;;;;;;8.80;3.70;;;;;;;18.83;62.20;93783.88;5045954;28;20035;-85
2022/06/25 00:13:07;;;;;;;5.85;3.25;;;;;;;18.74;62.35;93781.38;5045867;28;20018;-87
2022/06/25 00:15:33;;;;;;;5.85;3.75;;;;;;;18.77;62.34;93775.28;5045786;28;20111;-87
2022/06/25 00:17:58;;;;;;;5.75;3.20;;;;;;;18.73;62.49;93765.56;5045849;28;20063;-87
2022/06/25 00:20:25;;;;;;;4.70;3.20;;;;;;;18.63;62.52;93767.75;5046126;28;20017;-88
2022/06/25 00:22:50;;;;;;;5.18;3.58;;;;;;;18.59;62.50;93766.16;5045799;28;20307;-87
2022/06/25 00:25:16;;;;;;;6.90;3.63;;;;;;;18.58;62.70;93764.59;5044526;28;20026;-87
2022/06/25 00:27:41;;;;;;;14.00;4.50;;;;;;;18.59;62.86;93771.56;5045654;28;20045;-88
2022/06/25 00:30:09;;;;;;;8.50;3.80;;;;;;;18.53;62.71;93768.41;5045683;28;20041;-87
2022/06/25 00:32:35;;;;;;;8.32;4.68;;;;;;;18.48;63.11;93766.03;5045501;28;20305;-88
2022/06/25 00:35:02;;;;;;;9.82;3.97;;;;;;;18.41;62.95;93771.31;5046306;28;20021;-87
2022/06/25 00:37:28;;;;;;;5.53;3.65;;;;;;;18.37;63.22;93765.09;5045470;28;20029;-87
2022/06/25 00:39:53;;;;;;;11.18;4.25;;;;;;;18.34;62.71;93772.00;5045469;28;20378;-88
2022/06/25 00:42:19;;;;;;;8.25;4.50;;;;;;;18.23;63.34;93758.34;5044172;28;20026;-87
2022/06/25 00:44:45;;;;;;;15.32;4.65;;;;;;;18.19;63.42;93760.22;5045474;28;20089;-87
2022/06/25 00:47:15;;;;;;;13.43;4.93;;;;;;;18.15;63.50;93753.22;5045354;28;20222;-86
2022/06/25 00:49:42;;;;;;;15.50;5.25;;;;;;;18.09;63.54;93755.44;5045113;28;20021;-87
2022/06/25 00:52:11;;;;;;;7.63;4.65;;;;;;;18.05;63.84;93751.91;5045571;28;20022;-86
2022/06/25 00:54:40;;;;;;;10.25;4.53;;;;;;;18.05;64.20;93754.59;5045246;28;20021;-87
2022/06/25 00:57:07;;;;;;;8.50;4.40;;;;;;;18.07;64.63;93757.72;5045179;28;20032;-86
2022/06/25 01:00:02;;;;;;;10.02;4.35;;;;;;;18.10;65.33;93758.94;5045028;28;20045;-86
2022/06/25 01:02:28;;;;;;;11.68;5.38;;;;;;;18.09;65.17;93760.06;5044944;28;20059;-87
2022/06/25 01:04:53;;;;;;;12.25;5.22;;;;;;;18.11;64.75;93758.56;5044752;28;20092;-88
2022/06/25 01:07:20;;;;;;;6.22;4.28;;;;;;;18.11;64.20;93749.69;5044926;28;20398;-87
2022/06/25 01:09:47;;;;;;;7.93;4.45;;;;;;;18.16;63.91;93752.88;5043751;28;20013;-87
2022/06/25 01:12:13;;;;;;;7.53;5.25;;;;;;;18.15;63.69;93754.00;5045059;28;20021;-87
2022/06/25 01:14:39;;;;;;;13.45;4.32;;;;;;;18.12;63.08;93757.44;5044626;28;20021;-87
2022/06/25 01:17:08;;;;;;;6.70;4.18;;;;;;;18.11;63.40;93766.66;5044758;28;20193;-87
2022/06/25 01:19:35;;;;;;;7.65;4.13;;;;;;;18.11;63.95;93765.88;5044819;28;20037;-87
2022/06/25 01:22:05;;;;;;;8.73;4.55;;;;;;;18.18;63.41;93768.69;5044773;28;20025;-87
2022/06/25 01:24:31;;;;;;;24.17;4.65;;;;;;;18.15;63.51;93770.16;5043623;28;20044;-86
2022/06/25 01:26:57;;;;;;;6.82;4.65;;;;;;;18.20;63.61;93767.19;5044702;28;20093;-87
2022/06/25 01:29:22;;;;;;;9.77;4.60;;;;;;;18.24;63.66;93765.31;5044481;28;20037;-87
2022/06/25 01:31:48;;;;;;;9.88;3.55;;;;;;;18.30;64.66;93768.47;5044430;28;20030;-88
2022/06/25 01:34:13;;;;;;;12.30;4.47;;;;;;;18.33;64.78;93759.66;5044339;28;20419;-88
2022/06/25 01:36:39;;;;;;;10.93;3.75;;;;;;;18.36;64.76;93760.81;5044493;28;20092;-88
2022/06/25 01:39:04;;;;;;;7.03;3.42;;;;;;;18.38;65.37;93753.19;5044459;28;20076;-88
2022/06/25 01:41:30;;;;;;;5.93;3.72;;;;;;;18.41;65.05;93765.91;5044552;28;20044;-88
2022/06/25 01:43:55;;;;;;;8.30;3.60;;;;;;;18.41;64.75;93755.91;5044605;28;20026;-87
2022/06/25 01:46:21;;;;;;;10.10;3.90;;;;;;;18.44;64.76;93759.81;5044107;28;20286;-88
2022/06/25 01:48:47;;;;;;;10.07;3.88;;;;;;;18.45;65.06;93753.25;5044157;28;20220;-87
2022/06/25 01:51:16;;;;;;;5.82;3.63;;;;;;;18.29;64.13;93761.50;5044013;28;20032;-87
2022/06/25 01:53:42;;;;;;;6.03;3.72;;;;;;;18.31;64.60;93771.94;5044193;28;20021;-88
2022/06/25 01:56:08;;;;;;;8.65;3.83;;;;;;;18.30;64.50;93775.78;5044149;28;20089;-88
2022/06/25 01:58:33;;;;;;;13.00;4.13;;;;;;;18.24;63.73;93776.09;5043838;28;20033;-87
2022/06/25 02:00:58;;;;;;;9.20;4.60;;;;;;;18.24;64.29;93776.09;5044128;28;20029;-88
2022/06/25 02:03:25;;;;;;;13.95;4.72;;;;;;;18.25;64.18;93782.28;5044069;28;20028;-88
2022/06/25 02:05:59;;;;;;;10.88;4.97;;;;;;;18.30;64.55;93787.38;5043868;28;20035;-87
2022/06/25 02:08:29;;;;;;;13.27;4.60;;;;;;;18.31;65.04;93783.50;5043888;28;20072;-87
2022/06/25 02:10:56;;;;;;;6.47;4.00;;;;;;;18.34;64.87;93782.00;5043793;28;20023;-87
2022/06/25 02:13:22;;;;;;;7.68;4.13;;;;;;;18.34;65.12;93792.78;5044009;28;20029;-87
2022/06/25 02:15:47;;;;;;;6.60;4.40;;;;;;;18.34;64.46;93782.81;5043706;28;20028;-88
2022/06/25 02:18:13;;;;;;;13.77;4.78;;;;;;;18.28;64.66;93789.66;5043737;28;20367;-88
2022/06/25 02:20:40;;;;;;;6.60;4.63;;;;;;;18.25;65.11;93785.72;5042654;28;20330;-88
2022/06/25 02:23:06;;;;;;;6.32;4.07;;;;;;;18.28;65.35;93778.06;5043793;28;20021;-87
2022/06/25 02:25:31;;;;;;;7.22;3.88;;;;;;;18.30;65.34;93783.88;5041742;28;20056;-88
2022/06/25 02:27:57;;;;;;;9.45;3.90;;;;;;;18.33;65.45;93775.06;5043791;28;20022;-88
2022/06/25 02:30:23;;;;;;;11.27;5.05;;;;;;;18.38;66.01;93775.53;5043549;28;20334;-88
2022/06/25 02:32:48;;;;;;;11.25;4.53;;;;;;;18.43;65.88;93785.22;5043612;28;20059;-88
2022/06/25 02:35:14;;;;;;;13.27;5.05;;;;;;;18.45;65.94;93782.94;5043528;28;20036;-88
2022/06/25 02:37:39;;;;;;;11.63;5.18;;;;;;;18.49;66.24;93781.06;5043402;28;20097;-89
2022/06/25 02:40:06;;;;;;;11.57;5.18;;;;;;;18.51;66.44;93803.06;5043680;28;20014;-89
2022/06/25 02:42:38;;;;;;;14.75;6.80;;;;;;;18.48;66.05;93803.81;5043539;28;20060;-89
2022/06/25 02:45:04;;;;;;;;;;;;;;;18.42;65.92;93821.47;5043794;28;20029;-89
2022/06/25 02:47:29;;;;;;;18.88;6.60;;;;;;;18.32;66.30;93819.34;5043542;28;19905;-89
2022/06/25 02:49:55;;;;;;;9.70;5.13;;;;;;;18.19;66.70;93821.47;5043183;28;20021;-88
2022/06/25 02:52:20;;;;;;;8.73;5.60;;;;;;;18.14;66.96;93814.47;5043515;28;20021;-89
2022/06/25 02:54:46;;;;;;;16.13;6.40;;;;;;;18.13;67.45;93807.50;5043269;28;20018;-88
2022/06/25 02:59:55;;;;;;;13.98;5.78;;;;;;;18.17;67.80;93799.50;5043018;28;20103;-88
2022/06/25 03:02:20;;;;;;;14.40;5.15;;;;;;;18.19;67.96;93789.13;5043284;28;20021;-89
2022/06/25 03:04:46;;;;;;;17.02;5.93;;;;;;;18.28;68.02;93796.94;5043121;28;20029;-88
2022/06/25 03:07:11;;;;;;;10.45;5.43;;;;;;;18.30;67.82;93781.16;5043396;28;20049;-88
2022/06/25 03:09:37;;;;;;;6.70;5.00;;;;;;;18.37;67.85;93792.06;5043104;28;20260;-89
2022/06/25 03:12:03;;;;;;;11.05;5.03;;;;;;;18.45;67.60;93793.72;5042439;28;20033;-89
2022/06/25 03:14:28;;;;;;;10.35;5.28;;;;;;;18.47;67.60;93794.16;5043592;28;20080;-88
2022/06/25 03:16:54;;;;;;;11.10;4.95;;;;;;;18.47;67.41;93796.06;5043824;28;20312;-89
2022/06/25 03:19:19;;;;;;;8.27;4.75;;;;;;;18.54;67.21;93793.47;5043216;28;20022;-89
2022/06/25 03:21:46;;;;;;;15.20;4.78;;;;;;;18.59;67.07;93802.03;5043869;28;20025;-89
2022/06/25 03:24:11;;;;;;;6.95;4.93;;;;;;;18.67;66.40;93810.25;5044477;28;20267;-88
2022/06/25 03:26:37;;;;;;;9.88;4.60;;;;;;;18.76;66.10;93808.03;5043314;28;20088;-89
2022/06/25 03:29:03;;;;;;;16.30;4.78;;;;;;;18.79;66.12;93808.13;5043166;28;20017;-88
2022/06/25 03:31:29;;;;;;;13.27;6.35;;;;;;;18.81;65.81;93810.44;5043070;28;20029;-89
2022/06/25 03:33:54;;;;;;;11.80;5.45;;;;;;;18.83;65.87;93810.88;5043050;28;20028;-88
2022/06/25 03:36:20;;;;;;;7.47;4.82;;;;;;;18.88;66.43;93796.25;5044163;28;20021;-89
2022/06/25 03:38:45;;;;;;;8.60;5.72;;;;;;;18.92;66.29;93803.25;5046999;28;20041;-88
2022/06/25 03:43:55;;;;;;;9.52;5.35;;;;;;;19.06;66.97;93796.47;5046720;28;20062;-89
2022/06/25 03:46:21;;;;;;;13.85;5.55;;;;;;;19.07;67.13;93787.22;5046875;28;20022;-89
2022/06/25 03:48:46;;;;;;;13.15;5.80;;;;;;;19.12;67.00;93779.56;5046588;28;20227;-88
2022/06/25 03:51:13;;;;;;;13.60;5.55;;;;;;;19.16;67.10;93793.13;5045678;28;20312;-89
2022/06/25 03:53:38;;;;;;;9.93;5.57;;;;;;;19.20;66.82;93802.81;5046925;28;20043;-88
2022/06/25 03:56:04;;;;;;;9.55;5.40;;;;;;;19.22;66.95;93797.81;5046771;28;20022;-89
2022/06/25 03:58:30;;;;;;;12.57;5.82;;;;;;;19.22;66.33;93799.75;5046575;28;20045;-88
2022/06/25 04:00:55;;;;;;;9.98;5.40;;;;;;;19.18;66.99;93793.53;5047046;28;20017;-89
2022/06/25 04:03:21;;;;;;;17.05;5.65;;;;;;;19.21;66.83;93795.47;5046613;28;20308;-88
2022/06/25 04:05:46;;;;;;;10.05;5.57;;;;;;;19.22;67.13;93792.41;5046254;28;20021;-89
2022/06/25 04:08:12;;;;;;;10.80;5.88;;;;;;;19.30;67.20;93777.06;5046456;28;20227;-89
2022/06/25 04:10:38;;;;;;;11.52;5.78;;;;;;;19.35;67.25;93781.34;5046438;28;20037;-88
2022/06/25 04:13:03;;;;;;;12.82;5.30;;;;;;;19.41;66.99;93785.28;5047835;28;20021;-88
2022/06/25 04:15:29;;;;;;;7.82;4.93;;;;;;;19.46;66.88;93787.66;5048026;28;20076;-89
2022/06/25 04:17:54;;;;;;;10.02;5.18;;;;;;;19.51;66.36;93791.94;5046395;28;20041;-88
2022/06/25 04:20:19;;;;;;;23.58;6.38;;;;;;;19.55;65.62;93801.63;5047616;28;20037;-89
2022/06/25 04:22:45;;;;;;;17.67;5.80;;;;;;;19.56;66.16;93805.91;5047201;28;20017;-89
2022/06/25 04:25:10;;;;;;;12.88;6.28;;;;;;;19.56;66.27;93808.59;5046736;28;20025;-89
2022/06/25 04:30:20;;;;;;;13.43;6.28;;;;;;;19.43;67.28;93813.47;5045967;28;20386;-89
2022/06/25 04:32:45;;;;;;;8.38;6.10;;;;;;;19.32;67.16;93815.31;5046174;28;20037;-89
2022/06/25 04:35:11;;;;;;;14.82;5.82;;;;;;;19.24;67.51;93810.97;5044981;28;20032;-89
2022/06/25 04:37:36;;;;;;;11.88;6.10;;;;;;;19.20;67.48;93816.31;5045877;28;20052;-89
2022/06/25 04:40:02;;;;;;;19.13;6.80;;;;;;;19.22;66.24;93813.25;5046104;28;20025;-88
2022/06/25 04:42:28;;;;;;;18.02;6.38;;;;;;;19.24;67.16;93810.97;5045953;28;20311;-89
2022/06/25 04:44:53;;;;;;;10.80;6.50;;;;;;;19.27;66.06;93815.63;5046085;28;20030;-89
2022/06/25 04:47:19;;;;;;;11.32;6.00;;;;;;;19.30;66.15;93823.00;5045747;28;20049;-89
2022/06/25 04:49:44;;;;;;;12.45;7.28;;;;;;;19.29;65.60;93834.94;5045250;28;20089;-89
2022/06/25 04:52:09;;;;;;;12.98;6.70;;;;;;;19.30;66.11;93825.69;5045519;28;20320;-88
2022/06/25 04:54:35;;;;;;;15.65;7.20;;;;;;;19.40;65.89;93832.38;5045528;28;20032;-89
2022/06/25 04:57:01;;;;;;;15.05;6.70;;;;;;;19.44;65.93;93836.66;5045733;28;20025;-89
2022/06/25 04:59:27;;;;;;;21.40;8.40;;;;;;;19.50;66.11;93828.22;5044245;28;20057;-89
2022/06/25 05:01:53;;;;;;;14.82;6.93;;;;;;;19.60;65.00;93827.53;5045383;28;20049;-89
2022/06/25 05:04:18;;;;;;;14.40;6.72;;;;;;;19.65;63.98;93828.00;5045361;28;20029;-88
2022/06/25 05:06:44;;;;;;;14.85;7.72;;;;;;;19.72;64.34;93830.03;5045045;28;20025;-89
2022/06/25 05:09:09;;;;;;;10.20;7.30;;;;;;;19.73;64.78;93826.19;5045282;28;20076;-89
2022/06/25 05:11:35;;;;;;;14.85;7.57;;;;;;;19.77;64.32;93829.69;5045480;28;20029;-89
2022/06/25 05:14:01;;;;;;;14.10;7.97;;;;;;;19.79;63.58;93832.81;5045029;28;20371;-89
2022/06/25 05:16:26;;;;;;;12.55;6.82;;;;;;;19.81;62.96;93830.50;5045015;28;20059;-88
2022/06/25 05:18:52;;;;;;;13.68;6.82;;;;;;;19.83;63.30;93830.91;5045235;28;20033;-90
2022/06/25 05:21:17;;;;;;;12.45;6.72;;;;;;;19.78;64.04;93833.16;5044865;28;20050;-89
2022/06/25 05:23:43;;;;;;;11.75;7.57;;;;;;;19.88;63.02;93823.59;5044826;28;20040;-89
2022/06/25 05:26:08;;;;;;;13.43;7.70;;;;;;;19.89;62.43;93827.88;5045134;28;20026;-88
2022/06/25 05:28:34;;;;;;;10.52;6.60;;;;;;;19.91;61.60;93825.56;5044953;28;20064;-89
2022/06/25 05:30:59;;;;;;;14.40;7.05;;;;;;;19.90;61.87;93826.72;5044902;28;20018;-89
2022/06/25 05:33:24;;;;;;;19.10;8.63;;;;;;;19.94;62.04;93841.81;5044911;28;20021;-89
2022/06/25 05:35:50;;;;;;;15.38;7.07;;;;;;;19.95;62.36;93834.50;5044515;28;20243;-89
2022/06/25 05:38:15;;;;;;;13.13;7.72;;;;;;;20.02;61.81;93835.31;5044686;28;20044;-88
2022/06/25 05:40:41;;;;;;;18.38;8.70;;;;;;;20.03;60.89;93833.41;5044701;28;20063;-89
2022/06/25 05:43:06;;;;;;;14.63;8.43;;;;;;;20.01;61.03;93843.81;5044989;28;20248;-88
2022/06/25 05:45:32;;;;;;;13.77;7.40;;;;;;;20.05;61.42;93836.53;5043592;28;20026;-88
2022/06/25 05:47:57;;;;;;;15.90;6.60;;;;;;;20.16;61.69;93834.66;5044282;28;20029;-89
2022/06/25 05:50:23;;;;;;;11.15;6.70;;;;;;;20.31;61.33;93842.91;5044311;28;20029;-88
2022/06/25 05:52:49;;;;;;;10.02;7.20;;;;;;;20.40;61.91;93851.47;5043250;28;20044;-88
2022/06/25 05:55:14;;;;;;;12.65;6.85;;;;;;;20.45;62.53;93851.13;5044415;28;20097;-89
2022/06/25 05:57:40;;;;;;;16.48;7.68;;;;;;;20.56;62.10;93849.28;5044254;28;20311;-88
2022/06/25 06:00:08;;;;;;;16.73;8.05;;;;;;;20.57;62.33;93848.09;5043474;28;20045;-89
2022/06/25 06:02:33;;;;;;;10.35;7.65;;;;;;;20.51;62.50;93840.72;5044267;28;20099;-88
2022/06/25 06:04:59;;;;;;;15.23;7.03;;;;;;;20.63;62.68;93841.22;5044160;28;20025;-89
2022/06/25 06:07:24;;;;;;;15.27;7.85;;;;;;;20.67;62.05;93837.78;5044058;28;20141;-89
2022/06/25 06:09:50;;;;;;;12.57;8.02;;;;;;;20.76;61.35;93840.91;5044013;28;20207;-89
2022/06/25 06:12:15;;;;;;;14.27;6.97;;;;;;;20.75;60.85;93839.38;5044095;28;20055;-89
2022/06/25 06:14:41;;;;;;;13.20;8.00;;;;;;;20.89;60.98;93839.44;5042622;28;20052;-88
2022/06/25 06:17:06;;;;;;;16.55;8.25;;;;;;;20.99;60.55;93841.44;5044109;28;20160;-89
2022/06/25 06:19:32;;;;;;;14.10;8.45;;;;;;;21.07;59.63;93833.34;5043821;28;20044;-89
2022/06/25 06:21:57;;;;;;;20.48;8.60;;;;;;;21.19;59.82;93835.72;5043390;28;20021;-89
2022/06/25 06:24:22;;;;;;;15.98;7.63;;;;;;;21.25;59.24;93842.34;5044346;28;20018;-89
2022/06/25 06:26:48;;;;;;;18.63;7.25;;;;;;;21.35;59.30;93838.88;5044476;28;20047;-88
2022/06/25 06:29:13;;;;;;;15.93;9.02;;;;;;;21.47;57.77;93845.13;5044359;28;20025;-89
2022/06/25 06:31:39;;;;;;;12.55;7.90;;;;;;;21.43;57.80;93840.50;5044467;28;20040;-89
2022/06/25 06:34:04;;;;;;;16.35;7.57;;;;;;;21.40;58.40;93830.38;5043161;28;20243;-89
2022/06/25 06:36:31;;;;;;;15.05;8.05;;;;;;;21.42;57.68;93833.50;5044102;28;20197;-89
2022/06/25 06:38:56;;;;;;;12.48;7.68;;;;;;;21.45;58.10;93842.81;5043978;28;20072;-89
2022/06/25 06:41:22;;;;;;;15.60;7.28;;;;;;;21.47;58.47;93839.72;5043479;28;20017;-89
2022/06/25 06:43:47;;;;;;;15.18;7.82;;;;;;;21.50;58.98;93838.97;5044012;28;20028;-89
2022/06/25 06:46:13;;;;;;;17.05;7.82;;;;;;;21.58;58.69;93835.13;5043791;28;20205;-88
2022/06/25 06:48:39;;;;;;;14.80;7.45;;;;;;;21.73;58.49;93841.34;5043832;28;20052;-89
2022/06/25 06:51:05;;;;;;;12.55;6.90;;;;;;;21.86;58.15;93833.59;5043756;28;20362;-89
2022/06/25 06:53:32;;;;;;;19.40;7.25;;;;;;;21.87;57.36;93846.03;5044045;28;20021;-88
2022/06/25 06:55:57;;;;;;;13.90;6.53;;;;;;;22.02;56.81;93842.16;5043821;28;20028;-89
2022/06/25 06:58:22;;;;;;;14.60;7.13;;;;;;;22.12;56.00;93846.03;5043183;28;20045;-89
2022/06/25 07:00:51;;;;;;;15.38;6.80;;;;;;;22.17;55.20;93843.72;5044837;28;20025;-89
2022/06/25 07:03:16;;;;;;;8.73;6.15;;;;;;;22.21;54.60;93835.59;5044058;28;20032;-89
2022/06/25 07:05:42;;;;;;;15.07;6.53;;;;;;;22.13;54.96;93840.25;5042185;28;20049;-89
2022/06/25 07:08:07;;;;;;;9.57;6.43;;;;;;;22.11;53.93;93841.78;5042321;28;20029;-88
2022/06/25 07:10:33;;;;;;;11.57;6.03;;;;;;;22.15;52.92;93843.34;5043054;28;20052;-88
2022/06/25 07:12:58;;;;;;;14.90;6.15;;;;;;;22.13;53.80;93837.53;5043030;28;20048;-89
2022/06/25 07:15:23;;;;;;;11.15;5.88;;;;;;;22.20;52.89;93842.16;5043104;28;20025;-89
2022/06/25 07:17:49;;;;;;;11.32;6.82;;;;;;;22.20;52.92;93834.78;5043031;28;20236;-88
2022/06/25 07:20:14;;;;;;;11.40;6.47;;;;;;;22.23;54.09;93830.56;5042986;28;20315;-88
2022/06/25 07:22:40;;;;;;;11.60;5.43;;;;;;;22.30;54.17;93836.00;5043139;28;20075;-88
2022/06/25 07:25:06;;;;;;;11.43;6.60;;;;;;;22.37;54.48;93829.81;5043073;28;20067;-87
2022/06/25 07:27:32;;;;;;;9.98;6.00;;;;;;;22.41;54.65;93834.06;5042789;28;20334;-89
2022/06/25 07:29:58;;;;;;;11.20;6.85;;;;;;;22.48;53.89;93833.28;5042737;28;20350;-88
2022/06/25 07:32:23;;;;;;;10.10;6.03;;;;;;;22.54;54.43;93831.72;5042861;28;20045;-88
2022/06/25 07:34:48;;;;;;;9.52;6.10;;;;;;;22.55;54.10;93838.72;5042644;28;20025;-88
2022/06/25 07:37:14;;;;;;;15.20;5.80;;;;;;;22.71;54.33;93840.22;5042937;28;20051;-87
2022/06/25 07:39:40;;;;;;;11.00;5.65;;;;;;;22.80;54.28;93843.34;5043078;28;20021;-88
2022/06/25 07:42:05;;;;;;;9.32;5.80;;;;;;;22.88;52.61;93850.31;5042793;28;20367;-88
2022/06/25 07:44:31;;;;;;;19.40;6.57;;;;;;;22.88;53.31;93849.50;5042658;28;20025;-88
2022/06/25 07:46:56;;;;;;;11.55;5.68;;;;;;;23.07;53.27;93851.06;5042529;28;20266;-88
2022/06/25 07:49:22;;;;;;;9.82;4.63;;;;;;;23.17;53.02;93852.97;5042465;28;20193;-88
2022/06/25 07:51:56;;;;;;;8.73;5.53;;;;;;;23.31;52.07;93844.75;5042602;28;20052;-87
2022/06/25 07:54:23;;;;;;;14.25;5.47;;;;;;;23.38;52.25;93849.41;5042541;28;20041;-87
2022/06/25 07:56:48;;;;;;;8.85;5.35;;;;;;;23.46;51.62;93842.00;5042408;28;20029;-88
2022/06/25 07:59:14;;;;;;;10.50;5.78;;;;;;;23.52;52.07;93841.16;5042343;28;20053;-88
2022/06/25 08:01:39;;;;;;;20.75;5.97;;;;;;;23.64;51.91;93848.88;5042746;28;20029;-88
2022/06/25 08:04:05;;;;;;;13.27;6.15;;;;;;;23.75;51.71;93848.84;5042566;28;20029;-89
2022/06/25 08:06:31;;;;;;;15.65;5.47;;;;;;;23.90;51.83;93848.78;5042662;28;20052;-88
2022/06/25 08:08:56;;;;;;;8.32;5.10;;;;;;;23.99;51.31;93849.09;5042441;28;20029;-88
2022/06/25 08:11:22;;;;;;;18.13;6.13;;;;;;;24.09;50.86;93855.66;5042435;28;20035;-88
2022/06/25 08:13:48;;;;;;;16.48;6.45;;;;;;;24.09;51.02;93845.53;5042460;28;20025;-88
2022/06/25 08:16:13;;;;;;;14.15;6.22;;;;;;;24.17;51.08;93846.28;5042399;28;20029;-88
2022/06/25 08:18:39;;;;;;;17.30;6.10;;;;;;;24.26;51.59;93849.28;5042421;28;20025;-88
2022/06/25 08:21:05;;;;;;;10.32;6.80;;;;;;;24.28;50.11;93841.50;5042528;28;20101;-89
2022/06/25 08:23:30;;;;;;;15.45;5.72;;;;;;;24.39;49.94;93846.88;5043972;28;20075;-89
2022/06/25 08:25:56;;;;;;;11.10;5.35;;;;;;;24.45;50.11;93833.63;5045763;28;20220;-88
2022/06/25 08:28:23;;;;;;;19.90;6.35;;;;;;;24.57;49.08;93836.63;5044896;28;20073;-88
2022/06/25 08:30:49;;;;;;;10.38;5.45;;;;;;;24.69;49.50;93843.53;5046148;28;20029;-88
2022/06/25 08:33:14;;;;;;;10.60;5.82;;;;;;;24.77;49.57;93841.50;5046055;28;20029;-88
2022/06/25 08:35:40;;;;;;;13.50;5.45;;;;;;;24.91;49.21;93851.50;5045964;28;20021;-88
2022/06/25 08:38:06;;;;;;;8.50;5.40;;;;;;;25.00;48.24;93849.09;5045597;28;20319;-89
2022/06/25 08:40:31;;;;;;;9.98;5.90;;;;;;;25.14;48.42;93839.97;5044556;28;20375;-89
2022/06/25 08:42:57;;;;;;;18.50;7.38;;;;;;;25.15;48.38;93841.50;5045658;28;20032;-88
2022/06/25 08:45:22;;;;;;;18.77;6.03;;;;;;;25.18;47.56;93843.44;5045621;28;20028;-89
2022/06/25 08:47:50;;;;;;;15.75;6.47;;;;;;;25.25;47.23;93851.56;5045548;28;20021;-89
2022/06/25 08:50:23;;;;;;;18.27;6.15;;;;;;;25.34;47.81;93856.50;5045256;28;20037;-89
2022/06/25 08:52:53;;;;;;;13.48;6.90;;;;;;;25.33;46.62;93857.72;5045443;28;20339;-88
2022/06/25 08:55:36;;;;;;;12.80;6.60;;;;;;;25.26;46.64;93853.13;5045568;28;20048;-89
2022/06/25 08:58:03;;;;;;;13.20;6.53;;;;;;;25.14;47.55;93851.66;5045235;28;20028;-88
2022/06/25 09:00:33;;;;;;;11.52;6.13;;;;;;;25.23;48.46;93853.91;5045183;28;20017;-89
2022/06/25 09:03:03;;;;;;;13.85;6.55;;;;;;;25.37;48.98;93858.44;5045160;28;20044;-90
2022/06/25 09:05:34;;;;;;;10.80;6.22;;;;;;;25.49;47.57;93854.41;5045126;28;20021;-88
2022/06/25 09:08:03;;;;;;;11.48;6.18;;;;;;;25.55;47.36;93858.22;5043975;28;20096;-89
2022/06/25 09:10:29;;;;;;;12.93;7.00;;;;;;;25.71;46.85;93857.66;5044690;28;20029;-89
2022/06/25 09:12:57;;;;;;;13.60;6.65;;;;;;;25.66;46.10;93858.84;5045070;28;20100;-89
2022/06/25 09:15:26;;;;;;;11.52;5.63;;;;;;;25.73;46.79;93858.78;5045121;28;20070;-88
2022/06/25 09:17:52;;;;;;;24.73;5.95;;;;;;;25.83;46.77;93865.28;5044887;28;20021;-89
2022/06/25 09:20:21;;;;;;;13.30;6.53;;;;;;;25.88;46.66;93858.59;5044876;28;20017;-88
2022/06/25 09:22:54;;;;;;;19.30;8.05;;;;;;;26.03;44.96;93851.75;5044681;28;20022;-88
2022/06/25 09:25:24;;;;;;;14.98;7.32;;;;;;;26.03;45.20;93859.94;5044884;28;20028;-88
2022/06/25 09:27:50;;;;;;;20.08;7.05;;;;;;;26.15;46.26;93861.34;5044713;28;20068;-89
2022/06/25 09:30:19;;;;;;;13.63;7.97;;;;;;;26.33;44.96;93856.38;5044766;28;20092;-88
2022/06/25 09:32:58;;;;;;;13.60;6.63;;;;;;;26.47;45.31;93858.13;5044758;28;20084;-89
2022/06/25 09:35:43;;;;;;;15.60;6.45;;;;;;;26.65;44.70;93854.38;5044412;28;20271;-88
2022/06/25 09:38:20;;;;;;;15.07;6.75;;;;;;;26.85;43.16;93857.94;5044447;28;20211;-88
2022/06/25 09:40:51;;;;;;;15.38;6.75;;;;;;;26.97;42.49;93849.09;5044696;28;20017;-88
2022/06/25 09:43:18;;;;;;;18.83;7.35;;;;;;;27.09;42.75;93857.88;5044543;28;20025;-88
2022/06/25 09:45:45;;;;;;;12.45;6.72;;;;;;;27.13;41.85;93855.84;5043430;28;20308;-89
2022/06/25 09:48:38;;;;;;;13.13;6.93;;;;;;;27.13;42.55;93853.13;5044004;28;20033;-89
2022/06/25 09:51:04;;;;;;;14.98;6.97;;;;;;;27.10;42.27;93843.03;5075053;28;20041;-88
2022/06/25 09:53:30;;;;;;;13.73;6.38;;;;;;;27.11;42.51;93833.63;5044085;28;20058;-88
2022/06/25 09:55:56;;;;;;;17.52;6.95;;;;;;;27.21;43.35;93824.44;5044044;28;20064;-89
2022/06/25 09:58:22;;;;;;;14.65;6.47;;;;;;;27.26;42.97;93834.16;5042977;28;20045;-88
2022/06/25 10:00:48;;;;;;;14.00;6.63;;;;;;;27.24;43.01;93829.09;5044050;28;20014;-89
2022/06/25 10:03:14;;;;;;;14.38;6.43;;;;;;;27.24;42.65;93840.03;5044158;28;20024;-88
2022/06/25 10:05:40;;;;;;;17.10;6.72;;;;;;;27.35;42.69;93845.31;5044031;28;20022;-88
2022/06/25 10:08:11;;;;;;;11.25;6.20;;;;;;;27.24;42.66;93839.28;5043800;28;20378;-89
2022/06/25 10:10:42;;;;;;;21.33;6.80;;;;;;;27.17;42.59;93840.13;5043676;28;20452;-88
2022/06/25 10:13:08;;;;;;;10.95;6.10;;;;;;;27.21;40.93;93843.56;5043690;28;20091;-87
2022/06/25 10:15:34;;;;;;;15.55;6.25;;;;;;;27.11;42.20;93839.09;5043686;28;20371;-88
2022/06/25 10:18:06;;;;;;;13.60;5.80;;;;;;;27.07;42.33;93836.44;5043616;28;20025;-88
2022/06/25 10:20:32;;;;;;;;;;;;;;;27.02;42.26;93839.66;5044029;28;20308;-86
2022/06/25 10:23:00;;;;;;;12.30;6.57;;;;;;;26.86;41.98;93837.56;5043453;28;19920;-87
2022/06/25 10:25:27;;;;;;;16.25;6.32;;;;;;;26.93;42.13;93839.44;5042621;28;20025;-88
2022/06/25 10:28:06;;;;;;;11.80;5.85;;;;;;;26.87;41.84;93828.19;5043965;28;20021;-88
2022/06/25 10:30:46;;;;;;;18.70;6.13;;;;;;;26.91;42.77;93820.72;5043039;28;20039;-88
2022/06/25 10:33:14;;;;;;;13.27;5.88;;;;;;;26.97;42.94;93813.56;5044239;28;20031;-89
2022/06/25 10:35:40;;;;;;;16.15;6.60;;;;;;;27.03;42.43;93819.31;5043737;28;20025;-87
2022/06/25 10:38:13;;;;;;;13.90;5.18;;;;;;;27.10;42.41;93818.41;5044268;28;20093;-88
2022/06/25 10:43:46;;;;;;;16.13;5.43;;;;;;;27.14;41.48;93800.72;5043809;28;20097;-88
2022/06/25 10:46:30;;;;;;;16.50;5.75;;;;;;;27.15;40.65;93794.06;5043085;28;20026;-89
2022/06/25 10:49:18;;;;;;;13.45;5.38;;;;;;;27.22;41.79;93793.91;5042377;28;20220;-88
2022/06/25 10:51:50;;;;;;;18.35;5.70;;;;;;;27.31;42.21;93800.81;5043768;28;20029;-89
2022/06/25 10:54:22;;;;;;;17.75;5.97;;;;;;;27.44;40.12;93799.00;5043413;28;20300;-88
2022/06/25 10:56:54;;;;;;;21.02;5.13;;;;;;;27.50;41.17;93812.94;5043431;28;20100;-88
2022/06/25 10:59:34;;;;;;;16.77;5.30;;;;;;;27.54;38.87;93803.47;5043253;28;20068;-88
2022/06/25 11:02:02;;;;;;;17.00;4.93;;;;;;;27.52;39.64;93792.19;5043250;28;20021;-88
2022/06/25 11:04:30;;;;;;;28.80;6.25;;;;;;;27.44;41.24;93792.72;5042014;28;20017;-88
2022/06/25 11:07:11;;;;;;;16.13;5.80;;;;;;;27.52;42.17;93788.66;5043320;28;20022;-88
2022/06/25 11:09:38;;;;;;;17.88;6.70;;;;;;;27.72;40.23;93785.88;5043172;28;20029;-88
2022/06/25 11:12:05;;;;;;;19.30;5.32;;;;;;;27.94;39.18;93791.69;5043279;28;20100;-88
2022/06/25 11:14:32;;;;;;;18.23;5.63;;;;;;;27.96;40.60;93781.06;5043088;28;20223;-88
2022/06/25 11:17:06;;;;;;;22.55;6.30;;;;;;;28.09;39.64;93786.63;5042748;28;20025;-88
2022/06/25 11:19:32;;;;;;;11.30;5.50;;;;;;;28.15;40.40;93791.19;5042909;28;20009;-87
2022/06/25 11:22:01;;;;;;;20.83;7.20;;;;;;;28.19;40.17;93786.41;5042666;28;20056;-86
2022/06/25 11:24:27;;;;;;;19.92;5.57;;;;;;;28.32;41.75;93777.50;5042886;28;20092;-87
2022/06/25 11:29:51;;;;;;;14.27;5.40;;;;;;;28.51;40.41;93762.94;5042761;28;20399;-88
2022/06/25 11:32:22;;;;;;;20.40;7.05;;;;;;;28.59;40.12;93763.53;5042781;28;20092;-88
2022/06/25 11:35:00;;;;;;;13.05;6.03;;;;;;;28.76;39.51;93761.50;5041904;28;20030;-88
2022/06/25 11:37:26;;;;;;;15.55;6.20;;;;;;;28.87;38.95;93748.28;5041457;28;20032;-88
2022/06/25 11:39:52;;;;;;;16.25;5.53;;;;;;;28.91;38.97;93746.22;5042709;28;20044;-86